Time;durP1;ratioP1;P1;durP2;ratioP2;P2;SDS_P1;SDS_P2;PMS_P1;PMS_P2;Temp;Humidity;BMP_temperature;BMP_pressure;BME280_temperature;BME280_humidity;BME280_pressure;Samples;Min_cycle;Max_cycle;Signal;HPM_P1;HPM_P2
2023/07/30 00:00:40;;;;;;;12.10;5.20;;;;;;;21.44;63.03;100606.58;107623;1254;96580;-62
2023/07/30 00:03:28;;;;;;;14.20;6.00;;;;;;;21.40;63.72;100605.61;107583;1254;110320;-60
2023/07/30 00:05:57;;;;;;;16.10;5.00;;;;;;;21.30;63.98;100607.80;107575;1254;109426;-60
2023/07/30 00:08:25;;;;;;;16.10;5.60;;;;;;;21.22;63.87;100608.58;107563;1253;108572;-62
2023/07/30 00:10:56;;;;;;;17.00;5.40;;;;;;;21.14;64.45;100611.59;107596;1252;96466;-62
2023/07/30 00:13:27;;;;;;;9.80;4.90;;;;;;;21.07;64.34;100611.89;107641;1254;97012;-62
2023/07/30 00:15:56;;;;;;;14.20;5.10;;;;;;;21.02;64.17;100610.20;107617;1251;108434;-62
2023/07/30 00:18:24;;;;;;;14.20;5.30;;;;;;;20.99;64.38;100615.92;107626;1254;109652;-61
2023/07/30 00:20:53;;;;;;;11.40;5.70;;;;;;;20.95;64.79;100615.58;107599;1255;107388;-63
2023/07/30 00:23:23;;;;;;;11.60;5.80;;;;;;;20.92;64.78;100618.40;107547;1254;96494;-61
2023/07/30 00:25:52;;;;;;;18.20;5.90;;;;;;;20.88;64.89;100618.95;107579;1254;96491;-63
2023/07/30 00:28:20;;;;;;;13.40;5.20;;;;;;;20.87;64.90;100617.68;107580;1254;110726;-61
2023/07/30 00:30:49;;;;;;;13.10;6.10;;;;;;;20.83;65.04;100613.81;107615;1254;108071;-62
2023/07/30 00:33:17;;;;;;;10.40;5.10;;;;;;;20.79;65.25;100610.69;107651;1255;107367;-61
2023/07/30 00:35:46;;;;;;;17.50;5.10;;;;;;;20.75;65.42;100607.98;107588;1256;96609;-63
2023/07/30 00:38:15;;;;;;;11.60;5.10;;;;;;;20.71;65.49;100609.52;107520;1253;96981;-60
2023/07/30 00:40:44;;;;;;;16.20;5.80;;;;;;;20.66;65.62;100612.27;107505;1258;110763;-61
2023/07/30 00:43:13;;;;;;;14.10;5.30;;;;;;;20.59;65.96;100619.70;107583;1256;108343;-62
2023/07/30 00:45:43;;;;;;;16.20;5.50;;;;;;;20.55;66.09;100622.33;107632;1254;109435;-61
2023/07/30 00:48:13;;;;;;;10.90;4.90;;;;;;;20.50;66.81;100620.17;107596;1253;96490;-61
2023/07/30 00:50:42;;;;;;;11.80;4.80;;;;;;;20.44;67.76;100620.23;107549;1256;96485;-62
2023/07/30 00:53:14;;;;;;;14.00;5.20;;;;;;;20.38;67.80;100618.34;107561;1253;110919;-61
2023/07/30 00:55:42;;;;;;;15.90;5.10;;;;;;;20.34;67.93;100616.09;107614;1255;109266;-62
2023/07/30 00:58:11;;;;;;;12.20;4.90;;;;;;;20.32;67.78;100614.23;107616;1254;108697;-62
2023/07/30 01:00:41;;;;;;;7.10;4.90;;;;;;;20.31;67.55;100610.79;107547;1253;96638;-60
2023/07/30 01:03:09;;;;;;;14.20;5.50;;;;;;;20.32;67.62;100610.12;107604;1254;96827;-60
2023/07/30 01:05:38;;;;;;;12.90;5.10;;;;;;;20.34;67.41;100605.04;107631;1254;108963;-60
2023/07/30 01:08:06;;;;;;;11.00;5.50;;;;;;;20.35;67.33;100607.94;107562;1254;110209;-62
2023/07/30 01:10:36;;;;;;;12.10;4.60;;;;;;;20.35;67.64;100612.02;107562;1255;108115;-60
2023/07/30 01:13:06;;;;;;;14.00;5.50;;;;;;;20.35;67.95;100614.70;107578;1254;96494;-62
2023/07/30 01:15:37;;;;;;;13.40;4.70;;;;;;;20.31;67.68;100614.65;107548;1254;97112;-61
2023/07/30 01:18:06;;;;;;;9.70;4.20;;;;;;;20.31;67.69;100620.29;107572;1254;109263;-61
2023/07/30 01:20:35;;;;;;;12.10;5.30;;;;;;;20.31;67.63;100615.16;107596;1254;109876;-63
2023/07/30 01:23:03;;;;;;;10.20;4.70;;;;;;;20.32;67.76;100619.11;107570;1252;108594;-61
2023/07/30 01:25:36;;;;;;;10.20;5.20;;;;;;;20.31;67.61;100618.89;107561;1253;96405;-61
2023/07/30 01:28:08;;;;;;;10.40;4.30;;;;;;;20.28;67.93;100620.95;107610;1252;96328;-61
2023/07/30 01:30:42;;;;;;;19.50;5.90;;;;;;;20.22;67.84;100627.19;107570;1254;109595;-61
2023/07/30 01:33:18;;;;;;;15.90;4.70;;;;;;;20.14;67.88;100624.74;107506;1254;111144;-62
2023/07/30 01:35:47;;;;;;;9.10;4.10;;;;;;;20.13;67.89;100624.29;107555;1254;106980;-62
2023/07/30 01:38:16;;;;;;;11.30;4.50;;;;;;;20.12;68.32;100617.14;107539;1254;96460;-61
2023/07/30 01:40:45;;;;;;;15.60;5.20;;;;;;;20.09;68.42;100614.69;107579;1254;97000;-63
2023/07/30 01:43:13;;;;;;;11.90;4.90;;;;;;;20.07;68.41;100622.96;107556;1254;109549;-60
2023/07/30 01:45:42;;;;;;;13.10;4.70;;;;;;;20.06;68.74;100622.41;107567;1254;110063;-60
2023/07/30 01:48:13;;;;;;;9.60;4.30;;;;;;;20.04;68.58;100623.91;107531;1253;108092;-61
2023/07/30 01:50:43;;;;;;;7.20;4.10;;;;;;;20.00;68.82;100617.59;107525;1254;96469;-61
2023/07/30 01:53:11;;;;;;;9.90;4.30;;;;;;;19.97;69.17;100619.64;107524;1254;97045;-60
2023/07/30 01:55:43;;;;;;;16.20;4.20;;;;;;;19.96;68.86;100620.48;107505;1254;109672;-59
2023/07/30 01:58:13;;;;;;;14.70;4.70;;;;;;;19.95;68.95;100622.81;107449;1259;109457;-61
2023/07/30 02:00:41;;;;;;;6.60;4.20;;;;;;;19.96;69.05;100623.95;107532;1256;106903;-61
2023/07/30 02:03:09;;;;;;;10.70;4.40;;;;;;;19.94;68.91;100626.09;107551;1252;96235;-61
2023/07/30 02:05:38;;;;;;;7.70;4.70;;;;;;;19.88;68.64;100630.12;107615;1254;97018;-61
2023/07/30 02:08:06;;;;;;;8.00;4.20;;;;;;;19.83;68.88;100633.81;107622;1253;110934;-61
2023/07/30 02:10:35;;;;;;;9.40;5.80;;;;;;;19.81;69.17;100632.07;107557;1254;109368;-62
2023/07/30 02:13:03;;;;;;;13.40;5.00;;;;;;;19.81;69.33;100636.30;107588;1254;107713;-60
2023/07/30 02:15:31;;;;;;;13.50;5.10;;;;;;;19.80;69.36;100638.95;107542;1253;96488;-60
2023/07/30 02:18:00;;;;;;;10.90;4.50;;;;;;;19.76;69.16;100639.48;107594;1256;96588;-61
2023/07/30 02:20:28;;;;;;;7.60;4.80;;;;;;;19.72;69.24;100642.55;107612;1254;110029;-61
2023/07/30 02:22:56;;;;;;;9.60;4.70;;;;;;;19.68;69.41;100644.29;107584;1251;109895;-61
2023/07/30 02:25:24;;;;;;;13.40;5.00;;;;;;;19.61;69.93;100647.98;107570;1254;107405;-61
2023/07/30 02:27:53;;;;;;;12.20;4.30;;;;;;;19.60;70.06;100653.73;107637;1251;96610;-62
2023/07/30 02:30:21;;;;;;;22.20;4.90;;;;;;;19.59;69.94;100646.84;107613;1256;96542;-60
2023/07/30 02:32:50;;;;;;;14.30;4.20;;;;;;;19.57;70.20;100650.13;107625;1251;110740;-60
2023/07/30 02:35:19;;;;;;;14.00;4.80;;;;;;;19.52;70.20;100650.89;107593;1254;110913;-60
2023/07/30 02:37:48;;;;;;;8.30;5.00;;;;;;;19.50;70.13;100652.14;107527;1253;108757;-62
2023/07/30 02:40:17;;;;;;;9.80;4.70;;;;;;;19.48;70.19;100654.69;107595;1256;96344;-63
2023/07/30 02:42:45;;;;;;;12.10;4.70;;;;;;;19.47;70.09;100657.98;107604;1254;96993;-62
2023/07/30 02:45:14;;;;;;;14.30;5.30;;;;;;;19.48;70.45;100660.60;107605;1252;111134;-62
2023/07/30 02:47:42;;;;;;;12.60;4.60;;;;;;;19.47;70.32;100664.66;107556;1254;109333;-61
2023/07/30 02:50:11;;;;;;;10.60;5.10;;;;;;;19.46;70.30;100667.90;107527;1254;107445;-62
2023/07/30 02:52:39;;;;;;;5.30;3.70;;;;;;;19.43;70.27;100669.20;107504;1254;96534;-60
2023/07/30 02:55:08;;;;;;;7.40;4.80;;;;;;;19.38;70.24;100666.40;107521;1254;97171;-62
2023/07/30 02:57:36;;;;;;;19.30;5.50;;;;;;;19.34;70.16;100657.39;107541;1254;109263;-62
2023/07/30 03:00:05;;;;;;;13.20;5.10;;;;;;;19.32;70.26;100658.63;107541;1251;108347;-62
2023/07/30 03:02:34;;;;;;;15.40;4.70;;;;;;;19.31;70.34;100660.97;107557;1254;106444;-61
2023/07/30 03:05:04;;;;;;;11.00;4.40;;;;;;;19.31;70.56;100662.61;107636;1254;96488;-62
2023/07/30 03:07:32;;;;;;;9.90;4.90;;;;;;;19.33;70.64;100665.96;107646;1254;96360;-64
2023/07/30 03:10:01;;;;;;;8.80;4.70;;;;;;;19.32;70.66;100663.27;107553;1255;110117;-60
2023/07/30 03:12:29;;;;;;;12.10;4.40;;;;;;;19.33;70.71;100661.94;107527;1254;108939;-61
2023/07/30 03:14:57;;;;;;;10.30;4.80;;;;;;;19.35;70.93;100665.13;107582;1254;108367;-61
2023/07/30 03:17:26;;;;;;;14.50;5.00;;;;;;;19.39;71.13;100667.91;107609;1253;96359;-63
2023/07/30 03:19:54;;;;;;;18.10;4.90;;;;;;;19.42;71.26;100669.38;107584;1256;96344;-61
2023/07/30 03:22:22;;;;;;;12.50;5.20;;;;;;;19.42;70.93;100665.38;107571;1254;110805;-62
2023/07/30 03:24:50;;;;;;;9.40;4.50;;;;;;;19.44;70.82;100658.25;107576;1253;109445;-61
2023/07/30 03:27:20;;;;;;;14.60;5.00;;;;;;;19.44;70.87;100647.06;107642;1254;107394;-60
2023/07/30 03:29:49;;;;;;;9.20;4.50;;;;;;;19.47;70.94;100649.77;107569;1254;96567;-62
2023/07/30 03:32:17;;;;;;;9.10;4.60;;;;;;;19.49;71.04;100649.70;107444;1258;96466;-61
2023/07/30 03:34:45;;;;;;;11.50;4.40;;;;;;;19.53;71.35;100646.29;107501;1258;109555;-61
2023/07/30 03:37:14;;;;;;;12.00;5.30;;;;;;;19.56;71.15;100647.19;107558;1256;110064;-61
2023/07/30 03:39:43;;;;;;;16.80;5.60;;;;;;;19.59;71.21;100651.58;107526;1254;108035;-61
2023/07/30 03:42:11;;;;;;;10.70;4.70;;;;;;;19.61;71.06;100653.64;107506;1254;96549;-60
2023/07/30 03:44:39;;;;;;;20.10;5.10;;;;;;;19.63;71.02;100651.77;107520;1254;97009;-61
2023/07/30 03:47:07;;;;;;;14.10;5.30;;;;;;;19.67;71.13;100655.95;107531;1254;110344;-61
2023/07/30 03:49:37;;;;;;;21.70;5.40;;;;;;;19.70;71.04;100656.85;107483;1257;109689;-62
2023/07/30 03:52:06;;;;;;;18.40;6.30;;;;;;;19.73;71.00;100658.41;107394;1253;108742;-61
2023/07/30 03:54:34;;;;;;;22.10;6.40;;;;;;;19.78;70.92;100655.40;107526;1254;96548;-62
2023/07/30 03:57:03;;;;;;;15.20;5.30;;;;;;;19.83;70.83;100654.79;107540;1254;96334;-61
2023/07/30 03:59:31;;;;;;;24.40;5.40;;;;;;;19.88;70.80;100656.80;107549;1254;111021;-61
2023/07/30 04:02:00;;;;;;;19.30;6.40;;;;;;;19.92;70.71;100654.59;107525;1254;108630;-60
2023/07/30 04:04:28;;;;;;;12.80;5.30;;;;;;;19.96;70.60;100651.67;107542;1254;109715;-60
2023/07/30 04:06:57;;;;;;;13.00;5.00;;;;;;;20.01;70.53;100650.86;107548;1254;96586;-61
2023/07/30 04:09:25;;;;;;;20.90;5.80;;;;;;;20.06;70.46;100652.45;107516;1254;96472;-61
2023/07/30 04:11:54;;;;;;;19.70;4.80;;;;;;;20.10;70.67;100652.93;107543;1254;110912;-61
2023/07/30 04:14:22;;;;;;;16.80;5.80;;;;;;;20.16;70.48;100657.86;107521;1254;110107;-61
2023/07/30 04:16:51;;;;;;;15.40;4.80;;;;;;;20.21;70.54;100660.42;107503;1254;107349;-62
2023/07/30 04:19:20;;;;;;;20.00;5.30;;;;;;;20.27;70.36;100664.27;107519;1254;96523;-61
2023/07/30 04:21:49;;;;;;;15.60;5.20;;;;;;;20.33;70.36;100665.09;107550;1254;96361;-60
2023/07/30 04:24:18;;;;;;;12.10;5.10;;;;;;;20.39;70.51;100665.94;107535;1254;110224;-61
2023/07/30 04:26:47;;;;;;;14.90;5.10;;;;;;;20.40;70.25;100669.08;107498;1254;108666;-61
2023/07/30 04:29:16;;;;;;;12.60;4.80;;;;;;;20.44;70.08;100666.69;107530;1254;107726;-60
2023/07/30 04:31:45;;;;;;;23.00;5.10;;;;;;;20.48;70.12;100672.89;107539;1256;96466;-60
2023/07/30 04:34:14;;;;;;;14.50;5.30;;;;;;;20.53;69.91;100674.45;107651;1254;97083;-61
2023/07/30 04:36:43;;;;;;;16.60;5.80;;;;;;;20.57;70.01;100677.59;107612;1254;109855;-60
2023/07/30 04:39:12;;;;;;;11.90;5.90;;;;;;;20.63;69.99;100676.97;107557;1254;108703;-61
2023/07/30 04:41:41;;;;;;;12.40;5.00;;;;;;;20.70;69.90;100673.46;107520;1256;108232;-60
2023/07/30 04:44:10;;;;;;;12.40;5.40;;;;;;;20.76;69.84;100673.38;107659;1251;96492;-60
2023/07/30 04:46:38;;;;;;;12.00;5.50;;;;;;;20.83;69.68;100670.76;107567;1253;96359;-61
2023/07/30 04:49:06;;;;;;;17.40;6.00;;;;;;;20.90;69.62;100671.23;107497;1255;110282;-61
2023/07/30 04:51:35;;;;;;;13.00;5.90;;;;;;;20.97;69.40;100668.30;107629;1253;109092;-61
2023/07/30 04:54:04;;;;;;;12.30;5.50;;;;;;;21.05;69.19;100666.46;107616;1256;108804;-61
2023/07/30 04:56:32;;;;;;;16.40;5.50;;;;;;;21.13;69.13;100665.51;107505;1254;96466;-61
2023/07/30 04:59:01;;;;;;;13.10;5.20;;;;;;;21.22;68.81;100658.30;107584;1257;96541;-61
2023/07/30 05:01:31;;;;;;;15.60;5.40;;;;;;;21.32;68.45;100663.16;107675;1251;110111;-59
2023/07/30 05:03:59;;;;;;;14.00;6.10;;;;;;;21.44;68.25;100667.37;107576;1254;109906;-63
2023/07/30 05:06:27;;;;;;;6.30;3.90;;;;;;;21.57;67.34;100671.13;107515;1255;108494;-62
2023/07/30 05:08:56;;;;;;;5.60;3.80;;;;;;;21.67;65.94;100682.59;107532;1256;96581;-62
2023/07/30 05:11:24;;;;;;;6.90;3.60;;;;;;;21.74;65.20;100678.70;107636;1254;96348;-60
2023/07/30 05:13:53;;;;;;;8.80;3.80;;;;;;;21.83;65.06;100680.77;107659;1254;110418;-62
2023/07/30 05:16:22;;;;;;;8.70;3.70;;;;;;;21.93;64.29;100678.12;107662;1254;109098;-61
2023/07/30 05:18:50;;;;;;;6.80;3.40;;;;;;;21.96;63.95;100667.79;107595;1256;107540;-59
2023/07/30 05:21:18;;;;;;;9.60;3.50;;;;;;;22.01;64.00;100664.95;107534;1254;96481;-63
2023/07/30 05:23:49;;;;;;;8.90;3.30;;;;;;;22.04;63.51;100660.73;107620;1254;96357;-61
2023/07/30 05:26:17;;;;;;;7.10;3.90;;;;;;;22.09;63.29;100655.96;107620;1255;109725;-63
2023/07/30 05:28:45;;;;;;;8.40;3.40;;;;;;;22.11;62.48;100651.94;107572;1254;109649;-61
2023/07/30 05:31:14;;;;;;;10.40;3.70;;;;;;;22.13;62.22;100652.95;107583;1256;108325;-61
2023/07/30 05:33:43;;;;;;;9.50;3.40;;;;;;;22.16;62.25;100652.40;107644;1254;96524;-62
2023/07/30 05:36:12;;;;;;;6.70;3.10;;;;;;;22.18;61.79;100649.52;107608;1254;96994;-61
2023/07/30 05:38:40;;;;;;;7.70;3.80;;;;;;;22.22;61.61;100647.78;107600;1254;110751;-61
2023/07/30 05:41:09;;;;;;;13.70;3.90;;;;;;;22.25;61.42;100648.63;107620;1254;109866;-63
2023/07/30 05:43:37;;;;;;;6.80;3.10;;;;;;;22.30;61.21;100649.55;107553;1251;107595;-61
2023/07/30 05:46:08;;;;;;;5.90;3.40;;;;;;;22.34;61.05;100655.86;107595;1256;96555;-64
2023/07/30 05:48:43;;;;;;;9.60;3.40;;;;;;;22.39;60.48;100655.95;107551;1251;96504;-62
2023/07/30 05:51:13;;;;;;;8.40;3.30;;;;;;;22.45;60.00;100654.33;107555;1257;112142;-61
2023/07/30 05:53:51;;;;;;;5.70;3.00;;;;;;;22.50;59.77;100647.43;107638;1256;109776;-62
2023/07/30 05:56:27;;;;;;;11.90;3.40;;;;;;;22.55;59.17;100646.36;107502;1253;108763;-64
2023/07/30 05:58:55;;;;;;;5.30;3.00;;;;;;;22.63;59.11;100640.52;107519;1255;96484;-60
2023/07/30 06:01:23;;;;;;;9.20;3.10;;;;;;;22.70;58.81;100640.27;107704;1253;96360;-61
2023/07/30 06:03:52;;;;;;;6.10;3.10;;;;;;;22.77;58.95;100640.97;107617;1251;110194;-61
2023/07/30 06:06:26;;;;;;;6.80;3.20;;;;;;;22.82;58.50;100638.09;107630;1256;108755;-62
2023/07/30 06:08:55;;;;;;;5.50;2.70;;;;;;;22.90;58.18;100634.16;107598;1255;107341;-61
2023/07/30 06:11:25;;;;;;;5.50;3.10;;;;;;;22.95;58.15;100631.55;107537;1255;96489;-60
2023/07/30 06:13:54;;;;;;;8.10;2.40;;;;;;;23.01;58.03;100631.30;107535;1254;97039;-62
2023/07/30 06:16:22;;;;;;;5.70;2.70;;;;;;;23.06;57.85;100632.54;107533;1256;109435;-61
2023/07/30 06:18:50;;;;;;;7.50;2.50;;;;;;;23.12;57.71;100634.26;107540;1256;111014;-61
2023/07/30 06:21:18;;;;;;;3.40;2.40;;;;;;;23.18;56.89;100632.91;107557;1251;108299;-62
2023/07/30 06:23:47;;;;;;;5.30;3.10;;;;;;;23.23;55.79;100629.89;107606;1251;96494;-61
2023/07/30 06:26:15;;;;;;;10.30;4.30;;;;;;;23.33;55.69;100631.92;107640;1251;97115;-63
2023/07/30 06:28:44;;;;;;;11.80;4.40;;;;;;;23.43;55.37;100630.34;107640;1251;110461;-63
2023/07/30 06:31:13;;;;;;;4.30;3.30;;;;;;;23.53;55.71;100633.59;107551;1254;109305;-62
2023/07/30 06:33:41;;;;;;;9.30;3.30;;;;;;;23.61;55.35;100632.84;107543;1257;107542;-63
2023/07/30 06:36:09;;;;;;;3.80;2.70;;;;;;;23.70;55.08;100635.91;107522;1257;96550;-61
2023/07/30 06:38:38;;;;;;;10.60;3.00;;;;;;;23.78;54.93;100630.77;107679;1251;97095;-62
2023/07/30 06:41:06;;;;;;;11.00;2.70;;;;;;;23.85;54.84;100631.37;107630;1251;110107;-60
2023/07/30 06:43:35;;;;;;;4.40;3.10;;;;;;;23.94;54.63;100636.49;107645;1254;110013;-62
2023/07/30 06:46:03;;;;;;;6.50;2.80;;;;;;;24.01;54.05;100638.52;107646;1255;107696;-62
2023/07/30 06:48:32;;;;;;;3.70;2.70;;;;;;;24.10;53.91;100635.01;107583;1251;96588;-62
2023/07/30 06:51:01;;;;;;;4.00;2.50;;;;;;;24.18;53.90;100632.88;107599;1257;97096;-61
2023/07/30 06:53:30;;;;;;;4.90;2.20;;;;;;;24.25;53.84;100629.27;107671;1254;110658;-63
2023/07/30 06:55:58;;;;;;;4.90;2.60;;;;;;;24.32;53.66;100635.80;107530;1254;109725;-62
2023/07/30 06:58:26;;;;;;;6.60;3.20;;;;;;;24.40;53.57;100635.31;107499;1257;107939;-61
2023/07/30 07:00:55;;;;;;;8.70;3.30;;;;;;;24.52;53.41;100638.50;107585;1251;96540;-62
2023/07/30 07:03:24;;;;;;;4.40;2.50;;;;;;;24.63;53.32;100634.19;107588;1251;97077;-63
2023/07/30 07:06:02;;;;;;;13.40;3.30;;;;;;;24.72;53.31;100631.09;107579;1254;109284;-64
2023/07/30 07:08:42;;;;;;;6.70;3.10;;;;;;;24.82;52.97;100633.56;107560;1251;109763;-62
2023/07/30 07:11:11;;;;;;;3.50;2.60;;;;;;;24.93;52.39;100633.40;107526;1254;107011;-61
2023/07/30 07:13:39;;;;;;;6.70;2.90;;;;;;;25.03;52.35;100627.36;107511;1256;96510;-63
2023/07/30 07:16:08;;;;;;;12.80;5.20;;;;;;;25.10;52.52;100625.64;107548;1254;97013;-62
2023/07/30 07:18:37;;;;;;;10.30;3.70;;;;;;;25.20;52.38;100621.63;107598;1253;110070;-63
2023/07/30 07:21:05;;;;;;;10.10;3.40;;;;;;;25.30;51.82;100619.55;107625;1256;109807;-63
2023/07/30 07:23:33;;;;;;;13.20;7.90;;;;;;;25.44;51.35;100617.05;107568;1252;108360;-63
2023/07/30 07:26:02;;;;;;;6.20;3.60;;;;;;;25.55;51.51;100613.59;107592;1256;97669;-62
2023/07/30 07:28:30;;;;;;;3.90;3.10;;;;;;;25.69;51.25;100608.05;107681;1256;96360;-62
2023/07/30 07:30:59;;;;;;;5.10;2.70;;;;;;;25.81;51.22;100608.58;107626;1254;109675;-61
2023/07/30 07:33:28;;;;;;;7.30;2.60;;;;;;;25.88;51.20;100605.27;107631;1254;109500;-62
2023/07/30 07:36:06;;;;;;;6.30;2.60;;;;;;;25.97;51.17;100607.11;107617;1254;108315;-61
2023/07/30 07:38:36;;;;;;;5.40;2.30;;;;;;;26.06;50.46;100608.12;107528;1254;96360;-62
2023/07/30 07:41:04;;;;;;;3.30;2.60;;;;;;;26.13;49.33;100608.02;107592;1256;96557;-62
2023/07/30 07:43:36;;;;;;;5.90;2.30;;;;;;;26.20;47.93;100611.02;107597;1254;110651;-64
2023/07/30 07:46:09;;;;;;;5.60;2.20;;;;;;;26.29;48.21;100604.42;107625;1251;109339;-62
2023/07/30 07:48:38;;;;;;;3.20;2.70;;;;;;;26.39;48.09;100605.40;107619;1251;108136;-62
2023/07/30 07:51:09;;;;;;;5.90;2.80;;;;;;;26.48;47.97;100603.19;107572;1254;96503;-62
2023/07/30 07:53:38;;;;;;;7.60;2.60;;;;;;;26.56;47.94;100600.66;107633;1255;96445;-62
2023/07/30 07:56:06;;;;;;;6.80;2.40;;;;;;;26.67;48.26;100594.32;107594;1254;110531;-61
2023/07/30 07:58:36;;;;;;;8.70;2.80;;;;;;;26.74;47.56;100599.46;107639;1254;110745;-62
2023/07/30 08:01:04;;;;;;;6.00;2.60;;;;;;;26.80;47.25;100593.48;107607;1254;108078;-63
2023/07/30 08:03:32;;;;;;;7.70;2.50;;;;;;;26.90;46.55;100593.87;107580;1251;96901;-62
2023/07/30 08:06:01;;;;;;;3.00;2.30;;;;;;;26.99;45.18;100595.91;107593;1254;96390;-62
2023/07/30 08:08:30;;;;;;;5.50;2.30;;;;;;;27.10;44.53;100592.27;107654;1251;110054;-61
2023/07/30 08:10:58;;;;;;;5.00;2.70;;;;;;;27.24;44.62;100590.84;107656;1256;109800;-62
2023/07/30 08:13:27;;;;;;;3.30;2.40;;;;;;;27.41;43.84;100589.43;107594;1251;107987;-62
2023/07/30 08:15:55;;;;;;;4.60;2.80;;;;;;;27.54;44.22;100583.19;107577;1251;96492;-62
2023/07/30 08:18:23;;;;;;;6.80;2.50;;;;;;;27.66;44.38;100575.23;107597;1256;96608;-62
2023/07/30 08:20:52;;;;;;;2.70;1.90;;;;;;;27.78;44.18;100578.55;107586;1251;110853;-62
2023/07/30 08:23:20;;;;;;;2.80;2.40;;;;;;;27.90;43.52;100575.76;107626;1254;109610;-62
2023/07/30 08:25:49;;;;;;;7.10;2.20;;;;;;;28.06;42.71;100571.65;107587;1251;108600;-62
2023/07/30 08:28:20;;;;;;;3.00;1.90;;;;;;;28.24;42.48;100566.96;107704;1251;96485;-62
2023/07/30 08:30:48;;;;;;;3.60;2.20;;;;;;;28.44;42.77;100564.13;107625;1251;97243;-61
2023/07/30 08:33:16;;;;;;;5.40;2.20;;;;;;;28.65;42.66;100566.20;107643;1251;110263;-63
2023/07/30 08:35:45;;;;;;;2.10;1.80;;;;;;;28.89;41.43;100565.00;107580;1251;109257;-62
2023/07/30 08:38:13;;;;;;;4.60;2.70;;;;;;;29.12;39.64;100562.20;107576;1254;108263;-63
2023/07/30 08:40:42;;;;;;;3.40;2.00;;;;;;;29.40;39.87;100554.36;107453;1254;96487;-62
2023/07/30 08:43:11;;;;;;;3.00;2.00;;;;;;;29.76;39.73;100550.83;107678;1251;96370;-62
2023/07/30 08:45:39;;;;;;;6.80;2.00;;;;;;;30.09;38.84;100547.90;107600;1251;110090;-63
2023/07/30 08:48:07;;;;;;;4.70;1.80;;;;;;;30.41;39.31;100545.19;107539;1254;111127;-62
2023/07/30 08:50:37;;;;;;;6.40;1.90;;;;;;;30.73;38.80;100547.85;107490;1253;108127;-63
2023/07/30 08:53:07;;;;;;;3.00;2.40;;;;;;;30.91;38.58;100553.45;107558;1254;96451;-62
2023/07/30 08:55:37;;;;;;;2.40;1.60;;;;;;;31.08;37.89;100551.57;107564;1254;96361;-62
2023/07/30 08:58:06;;;;;;;5.20;1.60;;;;;;;31.19;37.07;100551.56;107679;1251;109192;-62
2023/07/30 09:00:37;;;;;;;5.30;1.70;;;;;;;31.27;36.77;100553.40;107622;1254;109813;-63
2023/07/30 09:03:07;;;;;;;1.90;1.50;;;;;;;31.34;37.15;100550.37;107582;1254;108747;-62
2023/07/30 09:05:36;;;;;;;2.00;1.60;;;;;;;31.41;35.44;100550.64;107653;1255;96452;-63
2023/07/30 09:08:06;;;;;;;1.80;1.40;;;;;;;31.54;35.29;100547.65;107620;1252;96550;-62
2023/07/30 09:10:35;;;;;;;5.10;2.00;;;;;;;31.66;35.86;100548.06;107549;1254;109664;-62
2023/07/30 09:13:03;;;;;;;6.30;1.90;;;;;;;31.79;34.69;100545.58;107541;1253;109375;-63
2023/07/30 09:15:33;;;;;;;9.00;1.90;;;;;;;31.87;34.63;100539.82;107576;1251;107644;-62
2023/07/30 09:18:02;;;;;;;5.40;1.90;;;;;;;31.97;33.94;100541.33;107615;1254;96601;-61
2023/07/30 09:20:38;;;;;;;3.10;1.40;;;;;;;32.02;33.10;100542.91;107638;1252;97026;-62
2023/07/30 09:23:08;;;;;;;5.10;1.40;;;;;;;32.08;33.12;100542.11;107664;1251;109983;-61
2023/07/30 09:25:37;;;;;;;2.50;2.00;;;;;;;32.17;32.71;100546.67;107596;1254;109727;-61
2023/07/30 09:28:06;;;;;;;5.20;2.10;;;;;;;32.29;33.12;100541.28;107599;1255;108123;-63
2023/07/30 09:30:35;;;;;;;2.90;2.20;;;;;;;32.44;33.23;100534.11;107567;1252;96498;-64
2023/07/30 09:33:04;;;;;;;2.50;2.10;;;;;;;32.69;33.01;100528.46;107688;1254;97042;-64
2023/07/30 09:35:34;;;;;;;11.60;2.60;;;;;;;33.00;32.79;100526.54;107567;1251;109558;-63
2023/07/30 09:38:03;;;;;;;3.90;2.20;;;;;;;33.23;32.38;100527.92;107619;1251;109436;-63
2023/07/30 09:40:38;;;;;;;3.60;2.10;;;;;;;33.47;32.09;100525.18;107627;1255;107715;-63
2023/07/30 09:43:07;;;;;;;5.80;1.40;;;;;;;33.68;32.42;100521.52;107626;1254;96517;-64
2023/07/30 09:45:36;;;;;;;5.70;1.80;;;;;;;34.00;31.97;100516.55;107331;1251;430789;-62
2023/07/30 09:48:05;;;;;;;6.30;1.70;;;;;;;34.25;31.61;100516.96;107588;1254;110511;-64
2023/07/30 09:50:35;;;;;;;8.30;1.30;;;;;;;34.48;30.59;100509.16;107487;1253;108670;-63
2023/07/30 09:53:04;;;;;;;5.10;1.50;;;;;;;34.65;30.44;100503.56;107546;1254;108530;-63
2023/07/30 09:55:33;;;;;;;2.80;2.00;;;;;;;34.89;30.29;100510.70;107593;1254;96465;-63
2023/07/30 09:58:01;;;;;;;5.30;2.10;;;;;;;34.89;29.75;100503.21;107639;1251;97019;-63
2023/07/30 10:00:30;;;;;;;5.30;1.70;;;;;;;34.98;30.45;100502.84;107634;1254;110874;-63
2023/07/30 10:03:01;;;;;;;2.20;1.60;;;;;;;35.39;29.83;100497.41;107640;1255;110225;-63
2023/07/30 10:05:36;;;;;;;2.90;1.70;;;;;;;35.84;28.83;100490.67;107625;1253;108425;-63
2023/07/30 10:08:16;;;;;;;2.50;1.40;;;;;;;36.38;28.52;100488.20;107596;1254;96555;-64
2023/07/30 10:10:44;;;;;;;6.80;1.90;;;;;;;37.04;27.28;100485.08;107659;1254;96496;-65
2023/07/30 10:13:14;;;;;;;7.70;2.50;;;;;;;37.44;25.92;100479.86;107554;1254;109720;-64
2023/07/30 10:15:44;;;;;;;5.60;1.50;;;;;;;37.82;25.05;100480.66;107533;1252;110144;-64
2023/07/30 10:18:12;;;;;;;4.30;1.60;;;;;;;38.14;25.04;100475.29;107647;1253;108624;-62
2023/07/30 10:20:45;;;;;;;2.70;1.60;;;;;;;38.60;24.86;100474.51;107611;1254;96475;-63
2023/07/30 10:23:13;;;;;;;4.20;1.50;;;;;;;39.13;24.04;100470.68;107605;1252;97000;-64
2023/07/30 10:25:52;;;;;;;2.40;1.60;;;;;;;39.40;23.52;100467.52;107666;1254;110102;-63
2023/07/30 10:28:29;;;;;;;4.00;1.30;;;;;;;39.70;21.97;100470.45;107628;1252;109020;-63
2023/07/30 10:31:08;;;;;;;1.70;1.30;;;;;;;40.07;22.18;100468.30;107630;1253;107420;-63
2023/07/30 10:33:45;;;;;;;1.90;1.10;;;;;;;40.46;22.09;100464.24;107622;1253;96369;-63
2023/07/30 10:36:17;;;;;;;3.40;1.30;;;;;;;40.77;22.13;100460.67;107646;1251;96399;-62
2023/07/30 10:38:47;;;;;;;4.70;1.40;;;;;;;41.20;21.82;100458.52;107626;1251;110251;-62
2023/07/30 10:41:17;;;;;;;4.40;1.40;;;;;;;41.55;20.87;100452.80;107651;1251;109783;-64
2023/07/30 10:43:50;;;;;;;1.30;1.20;;;;;;;41.98;20.34;100448.85;107600;1255;108242;-62
2023/07/30 10:46:19;;;;;;;2.10;1.30;;;;;;;42.26;19.75;100444.75;107613;1251;96525;-63
2023/07/30 10:48:48;;;;;;;1.70;1.30;;;;;;;42.35;19.08;100447.99;107671;1256;97734;-63
2023/07/30 10:51:19;;;;;;;1.80;1.50;;;;;;;42.44;19.04;100443.00;107570;1254;110640;-63
2023/07/30 10:53:49;;;;;;;1.30;1.10;;;;;;;42.49;19.46;100442.22;107575;1254;109834;-63
2023/07/30 10:56:21;;;;;;;4.10;1.10;;;;;;;42.83;19.14;100441.95;107592;1251;108375;-63
2023/07/30 10:58:52;;;;;;;1.60;1.10;;;;;;;43.23;19.02;100436.61;107590;1253;96468;-64
2023/07/30 11:01:25;;;;;;;2.20;1.10;;;;;;;43.24;19.05;100432.92;107615;1253;96462;-63
2023/07/30 11:03:54;;;;;;;3.40;1.60;;;;;;;43.28;18.93;100433.18;107574;1254;109404;-64
2023/07/30 11:06:24;;;;;;;5.90;1.20;;;;;;;43.33;18.82;100428.29;107597;1256;109975;-62
2023/07/30 11:08:53;;;;;;;1.70;0.90;;;;;;;43.51;18.63;100430.98;107590;1251;108315;-64
2023/07/30 11:11:24;;;;;;;2.40;1.20;;;;;;;43.79;18.52;100426.31;107637;1254;96475;-64
2023/07/30 11:13:52;;;;;;;2.80;1.70;;;;;;;43.76;18.17;100427.80;107578;1251;96578;-64
2023/07/30 11:16:21;;;;;;;2.80;1.40;;;;;;;43.56;18.43;100423.86;107610;1251;110531;-63
2023/07/30 11:18:50;;;;;;;5.60;2.20;;;;;;;43.56;18.28;100419.66;107670;1251;109271;-62